createdAt,value
2017-11-03T00:00:44.293Z,5.87
2017-11-03T00:03:11.852Z,18.85
2017-11-03T00:05:39.553Z,8.40
2017-11-03T00:08:07.068Z,13.27
2017-11-03T00:10:34.633Z,11.07
2017-11-03T00:13:02.329Z,5.65
2017-11-03T00:15:29.907Z,5.87
2017-11-03T00:17:57.612Z,10.82
2017-11-03T00:20:25.328Z,9.13
2017-11-03T00:22:53.079Z,10.77
2017-11-03T00:25:20.924Z,5.07
2017-11-03T00:27:48.559Z,6.30
2017-11-03T00:30:16.099Z,8.65
2017-11-03T00:32:43.613Z,9.40
2017-11-03T00:35:11.136Z,6.85
2017-11-03T00:37:38.681Z,11.25
2017-11-03T00:40:06.412Z,8.30
2017-11-03T00:42:33.957Z,7.47
2017-11-03T00:45:01.642Z,7.37
2017-11-03T00:47:29.283Z,5.47
2017-11-03T00:49:56.782Z,6.10
2017-11-03T00:52:24.301Z,6.53
2017-11-03T00:54:51.840Z,7.30
2017-11-03T00:57:19.394Z,14.50
2017-11-03T00:59:46.970Z,10.68
2017-11-03T01:02:14.527Z,4.12
2017-11-03T01:04:42.014Z,7.68
2017-11-03T01:07:09.572Z,6.60
2017-11-03T01:09:37.133Z,12.75
2017-11-03T01:12:04.753Z,9.45
2017-11-03T01:14:32.233Z,12.20
2017-11-03T01:16:59.811Z,16.65
2017-11-03T01:19:27.330Z,13.35
2017-11-03T01:21:54.832Z,7.32
2017-11-03T01:24:22.412Z,12.18
2017-11-03T01:26:49.975Z,10.35
2017-11-03T01:29:17.543Z,11.85
2017-11-03T01:31:45.041Z,9.35
2017-11-03T01:34:12.553Z,10.18
2017-11-03T01:36:40.048Z,16.08
2017-11-03T01:39:07.560Z,15.45
2017-11-03T01:41:43.295Z,10.68
2017-11-03T01:44:10.798Z,11.85
2017-11-03T01:46:52.950Z,16.60
2017-11-03T01:49:20.631Z,12.40
2017-11-03T01:51:48.156Z,11.73
2017-11-03T01:54:16.072Z,10.85
2017-11-03T01:56:43.826Z,15.50
2017-11-03T01:59:11.446Z,19.23
2017-11-03T02:01:38.955Z,12.43
2017-11-03T02:04:06.542Z,13.93
2017-11-03T02:06:34.037Z,13.40
2017-11-03T02:09:01.530Z,19.02
2017-11-03T02:11:29.025Z,19.70
2017-11-03T02:13:56.541Z,12.05
2017-11-03T02:16:24.013Z,15.05
2017-11-03T02:18:51.563Z,13.85
2017-11-03T02:21:19.046Z,15.85
2017-11-03T02:23:46.542Z,18.77
2017-11-03T02:26:14.048Z,16.15
2017-11-03T02:28:41.551Z,16.15
2017-11-03T02:31:09.035Z,14.02
2017-11-03T02:33:36.527Z,16.33
2017-11-03T02:36:04.043Z,16.25
2017-11-03T02:38:31.624Z,20.33
2017-11-03T02:40:59.107Z,13.43
2017-11-03T02:43:26.709Z,14.57
2017-11-03T02:45:54.287Z,15.15
2017-11-03T02:48:21.779Z,19.15
2017-11-03T02:50:49.312Z,12.25
2017-11-03T02:53:17.024Z,18.48
2017-11-03T02:55:44.555Z,13.95
2017-11-03T02:58:12.073Z,12.27
2017-11-03T03:00:39.578Z,14.05
2017-11-03T03:03:07.055Z,12.05
2017-11-03T03:05:34.569Z,19.37
2017-11-03T03:08:02.061Z,12.70
2017-11-03T03:10:29.585Z,11.90
2017-11-03T03:12:57.104Z,16.98
2017-11-03T03:15:24.622Z,14.73
2017-11-03T03:17:52.119Z,14.13
2017-11-03T03:20:19.843Z,20.15
2017-11-03T03:22:47.309Z,17.37
2017-11-03T03:25:14.803Z,12.10
2017-11-03T03:27:42.326Z,17.02
2017-11-03T03:30:09.819Z,12.40
2017-11-03T03:32:37.299Z,13.52
2017-11-03T03:35:04.837Z,16.80
2017-11-03T03:37:32.389Z,12.65
2017-11-03T03:39:59.890Z,19.37
2017-11-03T03:42:27.367Z,14.95
2017-11-03T03:44:54.914Z,11.02
2017-11-03T03:47:22.384Z,12.37
2017-11-03T03:49:49.931Z,15.30
2017-11-03T03:52:17.502Z,13.65
2017-11-03T03:54:45.078Z,13.18
2017-11-03T03:57:12.581Z,11.48
2017-11-03T03:59:40.451Z,11.90
2017-11-03T04:02:08.000Z,14.75
2017-11-03T04:04:35.547Z,13.82
2017-11-03T04:07:03.072Z,10.35
2017-11-03T04:09:30.638Z,15.65
2017-11-03T04:11:58.249Z,12.43
2017-11-03T04:14:25.805Z,9.48
2017-11-03T04:16:53.391Z,10.93
2017-11-03T04:19:21.017Z,13.15
2017-11-03T04:21:48.670Z,11.07
2017-11-03T04:24:16.822Z,11.85
2017-11-03T04:26:44.609Z,9.48
2017-11-03T04:29:12.354Z,9.10
2017-11-03T04:31:39.971Z,17.35
2017-11-03T04:34:07.716Z,13.75
2017-11-03T04:36:35.383Z,13.02
2017-11-03T04:39:03.204Z,12.55
2017-11-03T04:41:31.096Z,12.23
2017-11-03T04:43:58.885Z,12.60
2017-11-03T04:46:26.672Z,10.00
2017-11-03T04:48:54.437Z,19.23
2017-11-03T04:51:22.151Z,14.05
2017-11-03T04:53:49.775Z,12.23
2017-11-03T04:56:17.550Z,11.27
2017-11-03T04:58:45.242Z,13.15
2017-11-03T05:01:13.024Z,18.48
2017-11-03T05:03:40.787Z,13.60
2017-11-03T05:06:08.605Z,14.20
2017-11-03T05:08:36.834Z,22.42
2017-11-03T05:11:04.517Z,16.35
2017-11-03T05:13:32.138Z,16.92
2017-11-03T05:15:59.886Z,15.13
2017-11-03T05:18:27.705Z,17.70
2017-11-03T05:20:55.428Z,14.77
2017-11-03T05:23:22.937Z,19.37
2017-11-03T05:25:52.007Z,17.25
2017-11-03T05:28:21.635Z,18.17
2017-11-03T05:30:50.091Z,18.35
2017-11-03T05:33:17.844Z,13.40
2017-11-03T05:35:45.435Z,14.50
2017-11-03T05:38:13.145Z,19.37
2017-11-03T05:40:40.941Z,16.83
2017-11-03T05:43:08.575Z,14.45
2017-11-03T05:45:36.545Z,14.87
2017-11-03T05:48:04.548Z,16.08
2017-11-03T05:50:32.844Z,18.62
2017-11-03T05:53:00.557Z,14.38
2017-11-03T05:55:28.692Z,24.55
2017-11-03T05:57:56.386Z,15.00
2017-11-03T06:00:26.679Z,16.92
2017-11-03T06:02:54.644Z,21.40
2017-11-03T06:05:24.772Z,21.87
2017-11-03T06:07:53.355Z,19.37
2017-11-03T06:10:21.251Z,23.95
2017-11-03T06:12:50.220Z,25.48
2017-11-03T06:15:35.124Z,19.55
2017-11-03T06:18:02.874Z,22.45
2017-11-03T06:20:30.669Z,22.27
2017-11-03T06:22:58.362Z,16.30
2017-11-03T06:25:26.329Z,16.10
2017-11-03T06:27:53.870Z,20.08
2017-11-03T06:30:21.477Z,20.33
2017-11-03T06:32:49.752Z,21.08
2017-11-03T06:35:18.860Z,23.08
2017-11-03T06:37:47.712Z,26.02
2017-11-03T06:40:15.308Z,24.27
2017-11-03T06:42:43.029Z,20.12
2017-11-03T06:45:10.972Z,27.37
2017-11-03T06:47:38.604Z,26.98
2017-11-03T06:50:06.122Z,33.00
2017-11-03T06:52:33.680Z,34.08
2017-11-03T06:55:01.225Z,28.17
2017-11-03T06:57:28.968Z,32.17
2017-11-03T06:59:57.384Z,27.60
2017-11-03T07:02:24.925Z,26.02
2017-11-03T07:04:52.755Z,23.73
2017-11-03T07:07:20.316Z,25.77
2017-11-03T07:09:47.826Z,25.27
2017-11-03T07:12:15.384Z,26.10
2017-11-03T07:14:42.941Z,26.52
2017-11-03T07:17:10.496Z,22.15
2017-11-03T07:19:38.091Z,30.85
2017-11-03T07:22:05.607Z,26.83
2017-11-03T07:24:33.122Z,25.20
2017-11-03T07:27:00.635Z,27.15
2017-11-03T07:29:28.993Z,27.85
2017-11-03T07:31:56.527Z,28.10
2017-11-03T07:34:24.076Z,29.40
2017-11-03T07:36:51.611Z,32.38
2017-11-03T07:39:19.099Z,33.92
2017-11-03T07:41:46.699Z,31.05
2017-11-03T07:44:14.268Z,34.45
2017-11-03T07:46:41.885Z,40.17
2017-11-03T07:49:09.567Z,39.92
2017-11-03T07:51:37.356Z,43.15
2017-11-03T07:54:05.116Z,40.55
2017-11-03T07:56:32.876Z,34.83
2017-11-03T07:59:01.025Z,42.03
2017-11-03T08:01:28.693Z,40.78
2017-11-03T08:03:56.271Z,47.17
2017-11-03T08:09:32.707Z,41.53
2017-11-03T08:12:19.665Z,39.78
2017-11-03T08:27:16.751Z,37.80
2017-11-03T08:29:47.629Z,36.75
2017-11-03T08:32:39.043Z,43.90
2017-11-03T08:47:31.094Z,51.30
2017-11-03T08:49:59.706Z,47.20
2017-11-03T08:52:27.214Z,52.72
2017-11-03T08:54:54.847Z,56.17
2017-11-03T08:57:22.477Z,45.17
2017-11-03T08:59:50.238Z,39.42
2017-11-03T09:02:17.759Z,43.80
2017-11-03T09:04:45.331Z,37.13
2017-11-03T09:07:13.904Z,39.90
2017-11-03T09:09:41.483Z,40.45
2017-11-03T09:12:09.169Z,39.78
2017-11-03T09:14:36.683Z,38.25
2017-11-03T09:17:04.654Z,38.92
2017-11-03T09:19:44.474Z,38.60
2017-11-03T09:22:17.549Z,43.15
2017-11-03T09:24:53.634Z,36.90
2017-11-03T09:27:28.419Z,40.10
2017-11-03T09:32:37.159Z,43.50
2017-11-03T09:43:22.804Z,39.97
2017-11-03T09:48:48.642Z,34.15
2017-11-03T10:02:34.814Z,35.97
2017-11-03T10:05:02.665Z,34.63
2017-11-03T10:07:30.275Z,34.33
2017-11-03T10:09:57.905Z,32.20
2017-11-03T10:12:25.686Z,32.97
2017-11-03T10:14:53.378Z,35.35
2017-11-03T10:17:21.069Z,33.90
2017-11-03T10:19:48.981Z,32.53
2017-11-03T10:22:16.718Z,31.70
2017-11-03T10:24:44.401Z,30.95
2017-11-03T10:27:11.988Z,32.25
2017-11-03T10:29:39.907Z,27.55
2017-11-03T10:32:07.391Z,24.15
2017-11-03T10:34:34.999Z,27.30
2017-11-03T10:37:02.499Z,22.83
2017-11-03T10:39:31.155Z,22.77
2017-11-03T10:41:58.694Z,20.00
2017-11-03T10:44:26.325Z,18.48
2017-11-03T10:46:53.883Z,22.70
2017-11-03T10:49:21.903Z,19.45
2017-11-03T10:51:49.734Z,16.25
2017-11-03T10:54:19.541Z,18.10
2017-11-03T10:56:47.131Z,22.70
2017-11-03T10:59:14.710Z,20.42
2017-11-03T11:01:42.262Z,19.50
2017-11-03T11:04:10.570Z,24.35
2017-11-03T11:06:38.091Z,22.48
2017-11-03T11:09:06.500Z,23.38
2017-11-03T11:11:34.129Z,24.23
2017-11-03T11:14:01.643Z,17.17
2017-11-03T11:16:31.852Z,19.58
2017-11-03T11:18:59.532Z,17.62
2017-11-03T11:21:27.151Z,19.10
2017-11-03T11:23:54.671Z,15.20
2017-11-03T11:26:22.231Z,18.75
2017-11-03T11:28:49.746Z,15.20
2017-11-03T11:31:17.242Z,13.57
2017-11-03T11:33:44.889Z,12.60
2017-11-03T11:36:12.691Z,20.90
2017-11-03T11:38:40.206Z,14.23
2017-11-03T11:41:07.806Z,19.52
2017-11-03T11:43:35.416Z,16.48
2017-11-03T11:46:02.991Z,15.95
2017-11-03T11:48:30.683Z,18.10
2017-11-03T11:50:58.246Z,14.82
2017-11-03T11:53:25.759Z,17.33
2017-11-03T11:55:53.692Z,16.48
2017-11-03T11:58:21.348Z,20.12
2017-11-03T12:00:49.011Z,12.75
2017-11-03T12:03:17.410Z,13.07
2017-11-03T12:05:45.086Z,13.50
2017-11-03T12:08:12.613Z,14.23
2017-11-03T12:10:40.264Z,12.27
2017-11-03T12:13:07.901Z,12.88
2017-11-03T12:15:35.416Z,13.57
2017-11-03T12:18:03.009Z,16.58
2017-11-03T12:20:30.584Z,14.40
2017-11-03T12:22:58.116Z,11.88
2017-11-03T12:25:25.664Z,12.70
2017-11-03T12:27:53.220Z,13.20
2017-11-03T12:30:20.841Z,16.45
2017-11-03T12:32:48.420Z,12.93
2017-11-03T12:35:16.054Z,10.07
2017-11-03T12:37:43.569Z,16.33
2017-11-03T12:40:11.125Z,10.27
2017-11-03T12:42:38.685Z,10.80
2017-11-03T12:45:06.237Z,14.45
2017-11-03T12:47:33.814Z,9.57
2017-11-03T12:50:01.423Z,8.68
2017-11-03T12:52:28.934Z,10.18
2017-11-03T12:54:57.492Z,10.85
2017-11-03T12:57:25.092Z,10.88
2017-11-03T12:59:52.883Z,9.35
2017-11-03T13:02:20.448Z,12.90
2017-11-03T13:04:48.105Z,11.12
2017-11-03T13:07:15.607Z,9.93
2017-11-03T13:09:43.112Z,10.57
2017-11-03T13:12:11.526Z,8.60
2017-11-03T13:14:39.108Z,10.40
2017-11-03T13:17:06.631Z,8.57
2017-11-03T13:19:35.192Z,10.15
2017-11-03T13:22:02.856Z,8.85
2017-11-03T13:24:30.705Z,8.73
2017-11-03T13:26:58.386Z,10.43
2017-11-03T13:29:25.901Z,9.70
2017-11-03T13:31:53.459Z,9.50
2017-11-03T13:34:21.159Z,10.40
2017-11-03T13:36:48.795Z,10.73
2017-11-03T13:39:16.402Z,10.60
2017-11-03T13:41:44.127Z,8.48
2017-11-03T13:44:11.803Z,12.10
2017-11-03T13:46:39.384Z,12.35
2017-11-03T13:49:06.990Z,13.35
2017-11-03T13:51:34.596Z,9.85
2017-11-03T13:54:02.348Z,10.40
2017-11-03T13:56:30.102Z,11.50
2017-11-03T13:58:57.827Z,7.82
2017-11-03T14:01:25.480Z,8.55
2017-11-03T14:03:53.003Z,9.15
2017-11-03T14:06:20.595Z,11.48
2017-11-03T14:08:48.330Z,12.50
2017-11-03T14:11:16.676Z,10.23
2017-11-03T14:13:44.284Z,7.72
2017-11-03T14:16:12.067Z,14.82
2017-11-03T14:18:39.929Z,12.98
2017-11-03T14:21:07.700Z,9.88
2017-11-03T14:23:35.252Z,10.85
2017-11-03T14:26:02.912Z,9.77
2017-11-03T14:28:30.872Z,8.95
2017-11-03T14:30:59.492Z,8.25
2017-11-03T14:33:27.036Z,11.82
2017-11-03T14:35:54.712Z,8.10
2017-11-03T14:38:22.430Z,12.48
2017-11-03T14:40:50.205Z,11.02
2017-11-03T14:43:18.155Z,12.23
2017-11-03T14:45:45.876Z,9.82
2017-11-03T14:48:13.416Z,15.18
2017-11-03T14:50:40.947Z,12.98
2017-11-03T14:53:08.520Z,7.05
2017-11-03T14:55:36.148Z,7.90
2017-11-03T14:58:03.699Z,9.07
2017-11-03T15:00:31.266Z,12.30
2017-11-03T15:02:58.909Z,8.40
2017-11-03T15:05:26.533Z,8.93
2017-11-03T15:07:54.895Z,11.20
2017-11-03T15:10:23.284Z,9.18
2017-11-03T15:12:50.819Z,11.50
2017-11-03T15:15:18.470Z,12.68
2017-11-03T15:17:46.019Z,10.30
2017-11-03T15:20:13.855Z,19.15
2017-11-03T15:22:41.421Z,9.25
2017-11-03T15:25:09.033Z,13.10
2017-11-03T15:27:37.399Z,9.50
2017-11-03T15:30:05.785Z,10.05
2017-11-03T15:32:33.546Z,13.15
2017-11-03T15:35:02.387Z,10.40
2017-11-03T15:37:30.089Z,12.45
2017-11-03T15:39:58.660Z,10.27
2017-11-03T15:42:27.271Z,13.45
2017-11-03T15:45:07.074Z,11.27
2017-11-03T15:47:34.634Z,12.07
2017-11-03T15:50:02.344Z,19.73
2017-11-03T15:52:30.732Z,13.55
2017-11-03T15:54:58.875Z,12.25
2017-11-03T15:57:26.432Z,10.05
2017-11-03T15:59:54.497Z,11.98
2017-11-03T16:02:22.127Z,11.57
2017-11-03T16:04:49.856Z,12.85
2017-11-03T16:07:17.811Z,10.02
2017-11-03T16:09:45.689Z,11.60
2017-11-03T16:12:13.442Z,13.40
2017-11-03T16:14:41.133Z,9.63
2017-11-03T16:17:08.845Z,16.23
2017-11-03T16:19:36.733Z,15.20
2017-11-03T16:22:04.553Z,12.40
2017-11-03T16:24:32.352Z,14.65
2017-11-03T16:27:00.373Z,10.80
2017-11-03T16:29:28.141Z,9.30
2017-11-03T16:31:56.901Z,12.73
2017-11-03T16:34:24.781Z,11.02
2017-11-03T16:36:52.496Z,14.63
2017-11-03T16:39:20.318Z,14.75
2017-11-03T16:41:47.956Z,12.65
2017-11-03T16:44:15.838Z,13.60
2017-11-03T16:46:43.785Z,12.80
2017-11-03T16:49:11.640Z,15.40
2017-11-03T16:51:39.420Z,15.68
2017-11-03T16:54:09.075Z,20.90
2017-11-03T16:56:36.866Z,10.77
2017-11-03T16:59:04.465Z,11.77
2017-11-03T17:01:32.050Z,16.17
2017-11-03T17:03:59.583Z,13.10
2017-11-03T17:06:27.209Z,14.02
2017-11-03T17:08:54.705Z,13.35
2017-11-03T17:11:23.149Z,17.67
2017-11-03T17:13:50.656Z,13.55
2017-11-03T17:16:19.891Z,13.18
2017-11-03T17:18:47.388Z,13.20
2017-11-03T17:21:15.011Z,16.58
2017-11-03T17:23:42.552Z,18.05
2017-11-03T17:26:10.087Z,15.85
2017-11-03T17:28:37.537Z,14.30
2017-11-03T17:31:05.046Z,15.00
2017-11-03T17:33:32.583Z,15.77
2017-11-03T17:36:00.119Z,15.07
2017-11-03T17:38:27.651Z,21.30
2017-11-03T17:40:55.227Z,13.13
2017-11-03T17:43:22.753Z,14.85
2017-11-03T17:45:50.853Z,16.10
2017-11-03T17:48:18.467Z,13.93
2017-11-03T17:50:59.259Z,18.60
2017-11-03T18:05:47.820Z,11.18
2017-11-03T19:30:30.946Z,24.20
2017-11-03T19:32:59.446Z,29.00
2017-11-03T19:35:28.024Z,22.20
2017-11-03T19:37:55.742Z,23.98
2017-11-03T19:40:24.388Z,24.65
2017-11-03T19:42:52.415Z,24.60
2017-11-03T19:45:20.092Z,23.15
2017-11-03T19:47:48.765Z,24.35
2017-11-03T19:50:16.513Z,23.17
2017-11-03T19:52:44.116Z,28.95
2017-11-03T19:55:12.789Z,27.90
2017-11-03T19:57:40.625Z,25.23
2017-11-03T20:00:09.326Z,27.52
2017-11-03T20:02:37.043Z,24.90
2017-11-03T20:05:06.614Z,37.88
2017-11-03T20:07:34.301Z,34.17
2017-11-03T20:10:02.927Z,30.77
2017-11-03T20:12:30.442Z,27.95
2017-11-03T20:14:58.292Z,26.20
2017-11-03T20:17:25.870Z,27.17
2017-11-03T20:19:53.380Z,23.87
2017-11-03T20:22:21.022Z,25.40
2017-11-03T20:24:48.593Z,29.92
2017-11-03T20:27:16.294Z,30.25
2017-11-03T20:29:47.144Z,32.85
2017-11-03T20:32:14.856Z,32.63
2017-11-03T20:34:42.639Z,38.80
2017-11-03T20:37:10.278Z,31.20
2017-11-03T20:39:37.953Z,32.05
2017-11-03T20:42:06.023Z,34.53
2017-11-03T20:44:37.396Z,37.92
2017-11-03T20:47:05.038Z,36.30
2017-11-03T20:49:33.202Z,38.70
2017-11-03T20:52:00.878Z,44.50
2017-11-03T20:54:29.381Z,34.33
2017-11-03T20:56:56.954Z,40.55
2017-11-03T20:59:24.960Z,41.20
2017-11-03T21:01:52.489Z,37.47
2017-11-03T21:04:20.041Z,35.50
2017-11-03T21:06:47.608Z,34.22
2017-11-03T21:09:15.206Z,35.25
2017-11-03T21:11:42.720Z,45.67
2017-11-03T21:14:10.273Z,48.85
2017-11-03T21:16:37.887Z,42.08
2017-11-03T21:19:09.143Z,41.83
2017-11-03T21:21:36.792Z,41.42
2017-11-03T21:24:04.498Z,42.90
2017-11-03T21:26:32.119Z,42.90
2017-11-03T21:28:59.778Z,44.08
2017-11-03T21:31:27.378Z,45.60
2017-11-03T21:33:54.940Z,46.97
2017-11-03T21:36:22.778Z,55.60
2017-11-03T21:38:54.738Z,49.95
2017-11-03T21:41:22.542Z,53.45
2017-11-03T21:43:50.404Z,51.42
2017-11-03T21:46:18.588Z,51.67
2017-11-03T21:48:46.205Z,51.90
2017-11-03T21:51:13.848Z,51.83
2017-11-03T21:53:41.410Z,53.63
2017-11-03T21:56:09.194Z,48.87
2017-11-03T21:58:37.488Z,49.70
2017-11-03T22:01:05.288Z,53.13
2017-11-03T22:03:33.550Z,54.45
2017-11-03T22:06:01.400Z,50.63
2017-11-03T22:08:28.933Z,54.00
2017-11-03T22:10:58.112Z,49.33
2017-11-03T22:13:25.797Z,51.78
2017-11-03T22:15:53.390Z,49.08
2017-11-03T22:18:20.923Z,51.45
2017-11-03T22:20:48.535Z,54.60
2017-11-03T22:23:16.134Z,54.63
2017-11-03T22:25:43.686Z,56.17
2017-11-03T22:28:11.180Z,53.45
2017-11-03T22:30:39.639Z,52.78
2017-11-03T22:33:07.107Z,59.85
2017-11-03T22:35:35.782Z,54.88
2017-11-03T22:38:03.356Z,56.05
2017-11-03T22:40:30.907Z,55.55
2017-11-03T22:42:58.497Z,52.78
2017-11-03T22:45:26.103Z,51.63
2017-11-03T22:47:53.752Z,52.45
2017-11-03T22:50:21.251Z,50.92
2017-11-03T22:52:48.804Z,51.80
2017-11-03T22:55:16.489Z,57.28
2017-11-03T22:57:44.015Z,48.95
2017-11-03T23:00:11.897Z,56.30
2017-11-03T23:02:39.772Z,52.17
2017-11-03T23:05:07.300Z,52.58
2017-11-03T23:07:34.794Z,55.35
2017-11-03T23:10:02.327Z,51.00
2017-11-03T23:12:30.239Z,59.00
2017-11-03T23:14:57.767Z,60.40
2017-11-03T23:17:25.296Z,51.37
2017-11-03T23:19:52.829Z,58.15
2017-11-03T23:22:20.590Z,58.47
2017-11-03T23:24:49.138Z,57.80
2017-11-03T23:27:16.740Z,58.58
2017-11-03T23:29:45.760Z,65.53
2017-11-03T23:32:13.335Z,59.70
2017-11-03T23:34:40.894Z,60.35
2017-11-03T23:37:10.062Z,56.28
2017-11-03T23:39:37.577Z,57.53
2017-11-03T23:42:05.094Z,54.58
2017-11-03T23:44:32.592Z,59.17
2017-11-03T23:47:00.339Z,54.03
2017-11-03T23:49:27.898Z,54.95
2017-11-03T23:51:55.768Z,58.33
2017-11-03T23:54:23.338Z,69.45
2017-11-03T23:56:50.955Z,52.95
2017-11-03T23:59:18.745Z,57.03
